METAR rapporter

 

EKCH - Copenhagen/Kastr, Denmark
Afstand til vejrstation: SØ 11km
Opdateret: 21/05/2019 00:50
Mest skyet
Mest skyet
 Vind retning N
Vind: N 19 km/h
Temperatur: 15°C
Dugpunkt: 13°C
Fugtighed: 88%
Barometer: 1006 hPa
Skyer: Mest skyet
Sigtbarhed: 10 km
Sky detaljer: Få skyer 1554 m
Mest skyet 3353 m
Mest skyet 4267 m
2019/05/20 22:50 EKCH 202250Z AUTO 36010KT 9999 FEW051/// BKN110/// BKN140/// 15/13 Q1006 NOSIG
EKRK - Copenhagen/Roski, Denmark
Afstand til vejrstation: VSV 29km
Opdateret: 21/05/2019 00:50
Mest skyet
Mest skyet
 Vind retning N
Vind: N 19 km/h
Temperatur: 15°C
Dugpunkt: 13°C
Fugtighed: 88%
Barometer: 1006 hPa
Skyer: Mest skyet
Sigtbarhed: 10 km
Sky detaljer: Få skyer 1036 m
Mest skyet 1524 m
Mest skyet 3048 m
Mest skyet 3658 m
2019/05/20 22:50 EKRK 202250Z AUTO 35010KT 9999 FEW034/// BKN050/// BKN100/// BKN120/// 15/13 Q1006